sensor_id;sensor_type;location;lat;lon;timestamp;pressure;altitude;pressure_sealevel;temperature;humidity
52777;BME280;38656;54.260;20.822;2023-05-07T00:01:15;102003.00;;;12.83;43.88
52777;BME280;38656;54.260;20.822;2023-05-07T00:03:41;101998.66;;;12.82;43.65
52777;BME280;38656;54.260;20.822;2023-05-07T00:06:07;101998.75;;;12.81;44.12
52777;BME280;38656;54.260;20.822;2023-05-07T00:08:33;101999.88;;;12.77;43.68
52777;BME280;38656;54.260;20.822;2023-05-07T00:11:00;101999.97;;;12.75;44.25
52777;BME280;38656;54.260;20.822;2023-05-07T00:13:26;102003.81;;;12.71;44.10
52777;BME280;38656;54.260;20.822;2023-05-07T00:15:53;102007.00;;;12.76;44.38
52777;BME280;38656;54.260;20.822;2023-05-07T00:18:19;101998.25;;;12.88;43.83
52777;BME280;38656;54.260;20.822;2023-05-07T00:20:48;101998.41;;;12.72;44.49
52777;BME280;38656;54.260;20.822;2023-05-07T00:23:14;101999.41;;;12.84;43.82
52777;BME280;38656;54.260;20.822;2023-05-07T00:25:40;102005.38;;;12.73;43.93
52777;BME280;38656;54.260;20.822;2023-05-07T00:28:06;102007.56;;;12.81;43.66
52777;BME280;38656;54.260;20.822;2023-05-07T00:30:32;102003.28;;;12.51;44.91
52777;BME280;38656;54.260;20.822;2023-05-07T00:32:59;102008.78;;;12.48;44.51
52777;BME280;38656;54.260;20.822;2023-05-07T00:35:25;102010.09;;;12.27;45.40
52777;BME280;38656;54.260;20.822;2023-05-07T00:37:51;102012.38;;;12.47;44.36
52777;BME280;38656;54.260;20.822;2023-05-07T00:40:17;102012.53;;;12.59;44.84
52777;BME280;38656;54.260;20.822;2023-05-07T00:42:44;102018.81;;;12.29;45.11
52777;BME280;38656;54.260;20.822;2023-05-07T00:45:13;102020.69;;;12.41;45.34
52777;BME280;38656;54.260;20.822;2023-05-07T00:47:40;102017.06;;;12.56;44.50
52777;BME280;38656;54.260;20.822;2023-05-07T00:50:07;102016.44;;;12.53;45.04
52777;BME280;38656;54.260;20.822;2023-05-07T00:52:34;102022.22;;;12.31;45.11
52777;BME280;38656;54.260;20.822;2023-05-07T00:55:05;102019.97;;;12.39;44.95
52777;BME280;38656;54.260;20.822;2023-05-07T00:57:40;102026.47;;;12.33;44.89
52777;BME280;38656;54.260;20.822;2023-05-07T01:00:08;102016.16;;;12.14;45.44
52777;BME280;38656;54.260;20.822;2023-05-07T01:02:35;102027.72;;;12.28;45.20
52777;BME280;38656;54.260;20.822;2023-05-07T01:05:04;102028.00;;;12.23;45.57
52777;BME280;38656;54.260;20.822;2023-05-07T01:07:32;102026.47;;;12.33;44.96
52777;BME280;38656;54.260;20.822;2023-05-07T01:09:59;102030.34;;;12.13;45.68
52777;BME280;38656;54.260;20.822;2023-05-07T01:12:27;102030.72;;;12.07;45.58
52777;BME280;38656;54.260;20.822;2023-05-07T01:14:54;102031.22;;;12.14;45.81
52777;BME280;38656;54.260;20.822;2023-05-07T01:17:21;102031.50;;;12.09;45.45
52777;BME280;38656;54.260;20.822;2023-05-07T01:19:47;102032.19;;;11.82;46.58
52777;BME280;38656;54.260;20.822;2023-05-07T01:22:16;102041.88;;;11.67;46.83
52777;BME280;38656;54.260;20.822;2023-05-07T01:24:46;102039.41;;;11.95;46.27
52777;BME280;38656;54.260;20.822;2023-05-07T01:27:13;102039.81;;;11.73;46.70
52777;BME280;38656;54.260;20.822;2023-05-07T01:29:39;102036.47;;;11.85;46.77
52777;BME280;38656;54.260;20.822;2023-05-07T01:32:06;102040.78;;;11.86;46.85
52777;BME280;38656;54.260;20.822;2023-05-07T01:34:34;102038.97;;;11.72;47.33
52777;BME280;38656;54.260;20.822;2023-05-07T01:37:02;102036.88;;;11.63;47.06
52777;BME280;38656;54.260;20.822;2023-05-07T01:39:30;102032.50;;;11.47;47.38
52777;BME280;38656;54.260;20.822;2023-05-07T01:41:56;102032.78;;;11.57;47.39
52777;BME280;38656;54.260;20.822;2023-05-07T01:44:25;102029.66;;;11.50;47.41
52777;BME280;38656;54.260;20.822;2023-05-07T01:46:52;102048.03;;;11.68;46.85
52777;BME280;38656;54.260;20.822;2023-05-07T01:49:19;102041.34;;;11.46;47.65
52777;BME280;38656;54.260;20.822;2023-05-07T01:51:45;102047.09;;;11.69;46.79
52777;BME280;38656;54.260;20.822;2023-05-07T01:54:12;102049.47;;;11.43;47.67
52777;BME280;38656;54.260;20.822;2023-05-07T01:56:39;102037.59;;;11.50;47.59
52777;BME280;38656;54.260;20.822;2023-05-07T01:59:05;102036.47;;;11.55;47.17
52777;BME280;38656;54.260;20.822;2023-05-07T02:01:31;102040.44;;;11.62;47.53
52777;BME280;38656;54.260;20.822;2023-05-07T02:03:57;102044.06;;;11.61;47.05
52777;BME280;38656;54.260;20.822;2023-05-07T02:06:23;102047.22;;;11.51;47.46
52777;BME280;38656;54.260;20.822;2023-05-07T02:08:50;102046.91;;;11.42;47.75
52777;BME280;38656;54.260;20.822;2023-05-07T02:11:16;102044.28;;;11.26;47.94
52777;BME280;38656;54.260;20.822;2023-05-07T02:13:42;102050.22;;;11.45;47.40
52777;BME280;38656;54.260;20.822;2023-05-07T02:16:08;102047.66;;;11.44;47.43
52777;BME280;38656;54.260;20.822;2023-05-07T02:18:35;102056.19;;;10.87;49.44
52777;BME280;38656;54.260;20.822;2023-05-07T02:21:01;102056.09;;;11.20;47.91
52777;BME280;38656;54.260;20.822;2023-05-07T02:23:28;102057.16;;;11.32;47.69
52777;BME280;38656;54.260;20.822;2023-05-07T02:25:54;102066.84;;;11.01;48.51
52777;BME280;38656;54.260;20.822;2023-05-07T02:28:20;102056.09;;;11.04;48.34
52777;BME280;38656;54.260;20.822;2023-05-07T02:30:46;102063.94;;;11.06;48.50
52777;BME280;38656;54.260;20.822;2023-05-07T02:33:12;102070.44;;;11.00;49.31
52777;BME280;38656;54.260;20.822;2023-05-07T02:35:39;102070.59;;;10.97;48.96
52777;BME280;38656;54.260;20.822;2023-05-07T02:38:06;102070.94;;;10.91;49.16
52777;BME280;38656;54.260;20.822;2023-05-07T02:40:32;102078.28;;;10.86;49.27
52777;BME280;38656;54.260;20.822;2023-05-07T02:43:04;102074.50;;;10.90;49.01
52777;BME280;38656;54.260;20.822;2023-05-07T02:45:32;102081.84;;;10.85;49.26
52777;BME280;38656;54.260;20.822;2023-05-07T02:47:58;102079.53;;;10.12;51.48
52777;BME280;38656;54.260;20.822;2023-05-07T02:50:25;102073.47;;;10.60;51.26
52777;BME280;38656;54.260;20.822;2023-05-07T02:52:52;102070.75;;;10.62;51.07
52777;BME280;38656;54.260;20.822;2023-05-07T02:55:18;102069.41;;;10.87;50.00
52777;BME280;38656;54.260;20.822;2023-05-07T02:57:44;102076.38;;;10.56;51.17
52777;BME280;38656;54.260;20.822;2023-05-07T03:00:18;102076.38;;;10.56;51.50
52777;BME280;38656;54.260;20.822;2023-05-07T03:02:47;102072.13;;;10.69;50.50
52777;BME280;38656;54.260;20.822;2023-05-07T03:05:13;102077.63;;;10.49;51.17
52777;BME280;38656;54.260;20.822;2023-05-07T03:07:40;102086.13;;;10.20;53.21
52777;BME280;38656;54.260;20.822;2023-05-07T03:10:10;102079.78;;;10.58;51.28
52777;BME280;38656;54.260;20.822;2023-05-07T03:12:36;102081.16;;;10.65;50.57
52777;BME280;38656;54.260;20.822;2023-05-07T03:15:02;102089.50;;;10.73;50.18
52777;BME280;38656;54.260;20.822;2023-05-07T03:17:28;102087.19;;;10.67;51.55
52777;BME280;38656;54.260;20.822;2023-05-07T03:19:55;102092.69;;;10.80;50.69
52777;BME280;38656;54.260;20.822;2023-05-07T03:22:21;102092.34;;;10.86;50.99
52777;BME280;38656;54.260;20.822;2023-05-07T03:24:47;102094.97;;;10.70;51.73
52777;BME280;38656;54.260;20.822;2023-05-07T03:27:13;102092.25;;;10.88;50.76
52777;BME280;38656;54.260;20.822;2023-05-07T03:29:39;102099.69;;;10.97;50.21
52777;BME280;38656;54.260;20.822;2023-05-07T03:32:05;102099.22;;;10.57;52.08
52777;BME280;38656;54.260;20.822;2023-05-07T03:34:32;102092.19;;;11.05;51.33
52777;BME280;38656;54.260;20.822;2023-05-07T03:36:58;102099.78;;;11.11;50.50
52777;BME280;38656;54.260;20.822;2023-05-07T03:39:24;102099.47;;;11.32;50.25
52777;BME280;38656;54.260;20.822;2023-05-07T03:41:50;102099.94;;;11.55;50.94
52777;BME280;38656;54.260;20.822;2023-05-07T03:44:17;102108.63;;;11.26;50.61
52777;BME280;38656;54.260;20.822;2023-05-07T03:46:43;102108.38;;;10.99;51.79
52777;BME280;38656;54.260;20.822;2023-05-07T03:49:09;102112.94;;;11.90;50.30
52777;BME280;38656;54.260;20.822;2023-05-07T03:51:35;102112.09;;;12.19;49.40
52777;BME280;38656;54.260;20.822;2023-05-07T03:54:02;102115.69;;;12.76;47.86
52777;BME280;38656;54.260;20.822;2023-05-07T03:56:28;102112.56;;;12.69;47.90
52777;BME280;38656;54.260;20.822;2023-05-07T03:58:54;102115.72;;;12.62;47.87
52777;BME280;38656;54.260;20.822;2023-05-07T04:01:21;102117.56;;;12.16;48.25
52777;BME280;38656;54.260;20.822;2023-05-07T04:03:47;102122.09;;;12.14;49.85
52777;BME280;38656;54.260;20.822;2023-05-07T04:06:15;102119.78;;;13.23;47.63
52777;BME280;38656;54.260;20.822;2023-05-07T04:08:41;102123.84;;;13.56;46.14
52777;BME280;38656;54.260;20.822;2023-05-07T04:11:07;102123.53;;;13.34;46.28
52777;BME280;38656;54.260;20.822;2023-05-07T04:13:33;102114.44;;;13.38;46.18
52777;BME280;38656;54.260;20.822;2023-05-07T04:16:02;102123.72;;;13.31;46.55
52777;BME280;38656;54.260;20.822;2023-05-07T04:18:29;102129.75;;;13.47;46.80
52777;BME280;38656;54.260;20.822;2023-05-07T04:20:55;102123.84;;;13.56;46.65
52777;BME280;38656;54.260;20.822;2023-05-07T04:23:24;102125.22;;;12.93;47.24
52777;BME280;38656;54.260;20.822;2023-05-07T04:25:51;102129.22;;;13.42;47.04
52777;BME280;38656;54.260;20.822;2023-05-07T04:28:17;102141.41;;;13.03;47.38
52777;BME280;38656;54.260;20.822;2023-05-07T04:30:53;102132.81;;;13.41;46.82
52777;BME280;38656;54.260;20.822;2023-05-07T04:33:19;102144.41;;;13.40;46.93
52777;BME280;38656;54.260;20.822;2023-05-07T04:35:45;102135.56;;;12.98;47.50
52777;BME280;38656;54.260;20.822;2023-05-07T04:38:12;102139.25;;;14.04;45.85
52777;BME280;38656;54.260;20.822;2023-05-07T04:40:38;102136.84;;;14.65;45.26
52777;BME280;38656;54.260;20.822;2023-05-07T04:43:05;102135.78;;;15.18;43.73
52777;BME280;38656;54.260;20.822;2023-05-07T04:45:31;102137.53;;;14.93;43.37
52777;BME280;38656;54.260;20.822;2023-05-07T04:47:57;102140.28;;;15.42;42.37
52777;BME280;38656;54.260;20.822;2023-05-07T04:50:24;102142.94;;;15.66;42.53
52777;BME280;38656;54.260;20.822;2023-05-07T04:52:50;102142.41;;;16.32;41.64
52777;BME280;38656;54.260;20.822;2023-05-07T04:55:17;102144.38;;;16.52;40.73
52777;BME280;38656;54.260;20.822;2023-05-07T04:57:43;102149.34;;;16.68;40.17
52777;BME280;38656;54.260;20.822;2023-05-07T05:00:10;102161.91;;;13.70;44.95
52777;BME280;38656;54.260;20.822;2023-05-07T05:02:36;102157.50;;;16.08;42.83
52777;BME280;38656;54.260;20.822;2023-05-07T05:05:02;102154.16;;;16.40;41.10
52777;BME280;38656;54.260;20.822;2023-05-07T05:07:29;102157.34;;;16.79;40.80
52777;BME280;38656;54.260;20.822;2023-05-07T05:10:02;102165.53;;;15.84;41.62
52777;BME280;38656;54.260;20.822;2023-05-07T05:12:29;102165.50;;;16.89;40.59
52777;BME280;38656;54.260;20.822;2023-05-07T05:14:56;102162.91;;;16.76;40.32
52777;BME280;38656;54.260;20.822;2023-05-07T05:17:22;102179.91;;;16.98;40.45
52777;BME280;38656;54.260;20.822;2023-05-07T05:19:49;102169.72;;;16.80;41.13
52777;BME280;38656;54.260;20.822;2023-05-07T05:22:15;102164.91;;;16.97;40.98
52777;BME280;38656;54.260;20.822;2023-05-07T05:24:41;102171.13;;;16.39;40.61
52777;BME280;38656;54.260;20.822;2023-05-07T05:27:08;102175.38;;;15.84;41.11
52777;BME280;38656;54.260;20.822;2023-05-07T05:29:34;102173.03;;;16.15;41.55
52777;BME280;38656;54.260;20.822;2023-05-07T05:32:00;102175.69;;;16.03;40.95
52777;BME280;38656;54.260;20.822;2023-05-07T05:34:26;102174.56;;;16.98;40.75
52777;BME280;38656;54.260;20.822;2023-05-07T05:36:53;102178.91;;;16.54;40.50
52777;BME280;38656;54.260;20.822;2023-05-07T05:39:22;102177.44;;;16.50;40.55
52777;BME280;38656;54.260;20.822;2023-05-07T05:41:49;102168.38;;;16.52;40.60
52777;BME280;38656;54.260;20.822;2023-05-07T05:44:15;102176.13;;;16.44;41.24
52777;BME280;38656;54.260;20.822;2023-05-07T05:46:44;102180.34;;;16.46;40.41
52777;BME280;38656;54.260;20.822;2023-05-07T05:49:10;102181.09;;;16.49;41.20
52777;BME280;38656;54.260;20.822;2023-05-07T05:51:36;102173.38;;;17.57;40.01
52777;BME280;38656;54.260;20.822;2023-05-07T05:54:03;102179.53;;;17.25;40.83
52777;BME280;38656;54.260;20.822;2023-05-07T05:56:29;102179.22;;;17.83;39.32
52777;BME280;38656;54.260;20.822;2023-05-07T05:58:55;102181.75;;;17.85;39.43
52777;BME280;38656;54.260;20.822;2023-05-07T06:01:21;102186.59;;;18.24;39.25
52777;BME280;38656;54.260;20.822;2023-05-07T06:03:48;102183.38;;;18.51;39.27
52777;BME280;38656;54.260;20.822;2023-05-07T06:06:14;102185.19;;;18.81;38.19
52777;BME280;38656;54.260;20.822;2023-05-07T06:08:40;102182.72;;;19.40;38.06
52777;BME280;38656;54.260;20.822;2023-05-07T06:11:06;102181.75;;;18.90;37.58
52777;BME280;38656;54.260;20.822;2023-05-07T06:13:33;102180.53;;;18.83;37.34
52777;BME280;38656;54.260;20.822;2023-05-07T06:15:59;102182.06;;;19.57;36.41
52777;BME280;38656;54.260;20.822;2023-05-07T06:18:25;102184.00;;;18.64;38.52
52777;BME280;38656;54.260;20.822;2023-05-07T06:20:52;102179.13;;;19.00;36.75
52777;BME280;38656;54.260;20.822;2023-05-07T06:23:19;102184.06;;;16.91;38.80
52777;BME280;38656;54.260;20.822;2023-05-07T06:25:51;102177.41;;;18.99;36.15
52777;BME280;38656;54.260;20.822;2023-05-07T06:28:18;102176.94;;;17.90;38.68
52777;BME280;38656;54.260;20.822;2023-05-07T06:30:44;102177.38;;;19.40;37.26
52777;BME280;38656;54.260;20.822;2023-05-07T06:33:11;102179.81;;;19.82;35.27
52777;BME280;38656;54.260;20.822;2023-05-07T06:35:37;102180.13;;;19.89;35.73
52777;BME280;38656;54.260;20.822;2023-05-07T06:38:03;102174.94;;;20.34;34.64
52777;BME280;38656;54.260;20.822;2023-05-07T06:40:29;102178.91;;;20.40;34.82
52777;BME280;38656;54.260;20.822;2023-05-07T06:42:55;102189.63;;;19.52;33.59
52777;BME280;38656;54.260;20.822;2023-05-07T06:45:21;102189.44;;;18.32;35.29
52777;BME280;38656;54.260;20.822;2023-05-07T06:47:48;102187.72;;;19.93;35.02
52777;BME280;38656;54.260;20.822;2023-05-07T06:50:14;102190.28;;;20.99;34.25
52777;BME280;38656;54.260;20.822;2023-05-07T06:52:48;102190.09;;;21.74;33.37
52777;BME280;38656;54.260;20.822;2023-05-07T06:55:14;102190.94;;;20.64;34.42
52777;BME280;38656;54.260;20.822;2023-05-07T06:57:40;102187.75;;;22.16;33.29
52777;BME280;38656;54.260;20.822;2023-05-07T07:00:07;102193.69;;;22.01;32.63
52777;BME280;38656;54.260;20.822;2023-05-07T07:02:36;102195.22;;;21.86;32.71
52777;BME280;38656;54.260;20.822;2023-05-07T07:05:02;102194.81;;;22.17;33.04
52777;BME280;38656;54.260;20.822;2023-05-07T07:07:28;102194.69;;;22.00;35.35
52777;BME280;38656;54.260;20.822;2023-05-07T07:09:54;102191.78;;;22.12;31.72
52777;BME280;38656;54.260;20.822;2023-05-07T07:12:21;102196.38;;;22.01;33.20
52777;BME280;38656;54.260;20.822;2023-05-07T07:14:48;102188.78;;;23.61;32.07
52777;BME280;38656;54.260;20.822;2023-05-07T07:17:14;102186.72;;;22.35;31.43
52777;BME280;38656;54.260;20.822;2023-05-07T07:19:40;102193.88;;;22.78;31.39
52777;BME280;38656;54.260;20.822;2023-05-07T07:22:07;102193.47;;;23.59;31.46
52777;BME280;38656;54.260;20.822;2023-05-07T07:24:33;102187.63;;;23.96;30.04
52777;BME280;38656;54.260;20.822;2023-05-07T07:26:59;102186.06;;;22.67;30.71
52777;BME280;38656;54.260;20.822;2023-05-07T07:29:26;102188.63;;;24.03;30.63
52777;BME280;38656;54.260;20.822;2023-05-07T07:31:53;102194.38;;;23.92;31.32
52777;BME280;38656;54.260;20.822;2023-05-07T07:34:19;102195.84;;;24.28;29.86
52777;BME280;38656;54.260;20.822;2023-05-07T07:36:45;102203.78;;;22.43;30.74
52777;BME280;38656;54.260;20.822;2023-05-07T07:39:11;102192.97;;;22.96;29.70
52777;BME280;38656;54.260;20.822;2023-05-07T07:41:37;102194.84;;;25.33;30.00
52777;BME280;38656;54.260;20.822;2023-05-07T07:44:04;102193.34;;;25.53;28.58
52777;BME280;38656;54.260;20.822;2023-05-07T07:46:33;102196.47;;;24.71;28.66
52777;BME280;38656;54.260;20.822;2023-05-07T07:48:59;102194.78;;;24.70;28.39
52777;BME280;38656;54.260;20.822;2023-05-07T07:51:25;102200.53;;;25.46;29.24
52777;BME280;38656;54.260;20.822;2023-05-07T07:53:52;102195.88;;;25.78;28.45
52777;BME280;38656;54.260;20.822;2023-05-07T07:56:32;102197.88;;;23.60;30.60
52777;BME280;38656;54.260;20.822;2023-05-07T07:58:59;102198.53;;;24.52;26.78
52777;BME280;38656;54.260;20.822;2023-05-07T08:01:25;102198.59;;;23.87;27.44
52777;BME280;38656;54.260;20.822;2023-05-07T08:03:52;102195.34;;;24.41;27.83
52777;BME280;38656;54.260;20.822;2023-05-07T08:06:18;102198.03;;;24.32;26.77
52777;BME280;38656;54.260;20.822;2023-05-07T08:08:54;102195.25;;;23.25;27.38
52777;BME280;38656;54.260;20.822;2023-05-07T08:11:20;102194.25;;;23.35;25.81
52777;BME280;38656;54.260;20.822;2023-05-07T08:13:47;102198.41;;;24.94;26.54
52777;BME280;38656;54.260;20.822;2023-05-07T08:16:13;102197.38;;;24.22;25.57
52777;BME280;38656;54.260;20.822;2023-05-07T08:18:40;102190.47;;;23.95;27.33
52777;BME280;38656;54.260;20.822;2023-05-07T08:21:07;102204.94;;;24.51;25.73
52777;BME280;38656;54.260;20.822;2023-05-07T08:23:33;102199.84;;;24.56;26.03
52777;BME280;38656;54.260;20.822;2023-05-07T08:26:00;102197.91;;;24.26;25.36
52777;BME280;38656;54.260;20.822;2023-05-07T08:28:26;102196.16;;;25.83;25.07
52777;BME280;38656;54.260;20.822;2023-05-07T08:30:52;102186.41;;;26.20;25.09
52777;BME280;38656;54.260;20.822;2023-05-07T08:33:19;102189.53;;;26.09;24.95
52777;BME280;38656;54.260;20.822;2023-05-07T08:35:45;102191.31;;;24.92;24.79
52777;BME280;38656;54.260;20.822;2023-05-07T08:38:11;102193.53;;;23.92;25.53
52777;BME280;38656;54.260;20.822;2023-05-07T08:40:39;102193.88;;;23.89;24.89
52777;BME280;38656;54.260;20.822;2023-05-07T08:43:07;102192.22;;;25.71;24.70
52777;BME280;38656;54.260;20.822;2023-05-07T08:45:34;102190.88;;;26.13;24.23
52777;BME280;38656;54.260;20.822;2023-05-07T08:48:03;102200.31;;;25.16;23.94
52777;BME280;38656;54.260;20.822;2023-05-07T08:50:31;102194.00;;;25.01;25.78
52777;BME280;38656;54.260;20.822;2023-05-07T08:52:57;102196.28;;;25.12;24.73
52777;BME280;38656;54.260;20.822;2023-05-07T08:55:24;102193.66;;;24.23;24.97
52777;BME280;38656;54.260;20.822;2023-05-07T08:57:51;102193.88;;;22.78;25.83
52777;BME280;38656;54.260;20.822;2023-05-07T09:00:18;102196.28;;;22.90;26.65
52777;BME280;38656;54.260;20.822;2023-05-07T09:02:45;102208.00;;;25.27;25.16
52777;BME280;38656;54.260;20.822;2023-05-07T09:05:11;102192.41;;;24.75;24.92
52777;BME280;38656;54.260;20.822;2023-05-07T09:07:37;102198.56;;;26.54;24.13
52777;BME280;38656;54.260;20.822;2023-05-07T09:10:04;102195.97;;;26.91;23.17
52777;BME280;38656;54.260;20.822;2023-05-07T09:12:31;102190.91;;;27.02;24.36
52777;BME280;38656;54.260;20.822;2023-05-07T09:15:04;102195.69;;;26.03;23.01
52777;BME280;38656;54.260;20.822;2023-05-07T09:17:31;102194.72;;;27.88;23.76
52777;BME280;38656;54.260;20.822;2023-05-07T09:20:02;102197.38;;;26.04;23.64
52777;BME280;38656;54.260;20.822;2023-05-07T09:22:32;102196.59;;;26.33;23.72
52777;BME280;38656;54.260;20.822;2023-05-07T09:24:58;102198.53;;;27.14;23.56
52777;BME280;38656;54.260;20.822;2023-05-07T09:27:25;102206.47;;;26.11;22.90
52777;BME280;38656;54.260;20.822;2023-05-07T09:29:52;102197.97;;;26.14;22.71
52777;BME280;38656;54.260;20.822;2023-05-07T09:32:19;102205.91;;;26.69;23.07
52777;BME280;38656;54.260;20.822;2023-05-07T09:34:45;102194.56;;;27.31;22.12
52777;BME280;38656;54.260;20.822;2023-05-07T09:37:16;102203.25;;;24.59;23.46
52777;BME280;38656;54.260;20.822;2023-05-07T09:39:47;102195.72;;;25.56;24.33
52777;BME280;38656;54.260;20.822;2023-05-07T09:42:14;102197.22;;;26.05;23.58
52777;BME280;38656;54.260;20.822;2023-05-07T09:44:41;102201.22;;;24.61;23.35
52777;BME280;38656;54.260;20.822;2023-05-07T09:47:09;102190.91;;;27.02;22.13
52777;BME280;38656;54.260;20.822;2023-05-07T09:49:39;102193.81;;;27.01;22.28
52777;BME280;38656;54.260;20.822;2023-05-07T09:52:08;102190.22;;;27.52;23.16
52777;BME280;38656;54.260;20.822;2023-05-07T09:54:36;102195.84;;;26.54;23.53
52777;BME280;38656;54.260;20.822;2023-05-07T09:57:06;102196.16;;;27.62;23.28
52777;BME280;38656;54.260;20.822;2023-05-07T09:59:33;102191.25;;;27.72;22.60
52777;BME280;38656;54.260;20.822;2023-05-07T10:02:01;102188.81;;;28.34;22.47
52777;BME280;38656;54.260;20.822;2023-05-07T10:04:30;102193.19;;;27.79;21.55
52777;BME280;38656;54.260;20.822;2023-05-07T10:06:57;102193.72;;;28.81;20.63
52777;BME280;38656;54.260;20.822;2023-05-07T10:09:26;102197.16;;;26.43;21.84
52777;BME280;38656;54.260;20.822;2023-05-07T10:11:52;102198.41;;;26.71;23.32
52777;BME280;38656;54.260;20.822;2023-05-07T10:14:22;102199.50;;;27.43;22.08
52777;BME280;38656;54.260;20.822;2023-05-07T10:16:49;102198.03;;;27.62;22.20
52777;BME280;38656;54.260;20.822;2023-05-07T10:19:16;102198.69;;;27.27;21.80
52777;BME280;38656;54.260;20.822;2023-05-07T10:21:54;102192.97;;;28.30;22.53
52777;BME280;38656;54.260;20.822;2023-05-07T10:24:31;102192.97;;;28.30;22.20
52777;BME280;38656;54.260;20.822;2023-05-07T10:26:59;102198.53;;;27.14;22.03
52777;BME280;38656;54.260;20.822;2023-05-07T10:34:35;102187.63;;;26.62;22.64
52777;BME280;38656;54.260;20.822;2023-05-07T10:37:02;102192.69;;;26.50;24.05
52777;BME280;38656;54.260;20.822;2023-05-07T10:39:30;102185.00;;;26.54;22.28
52777;BME280;38656;54.260;20.822;2023-05-07T10:41:56;102192.94;;;25.02;22.33
52777;BME280;38656;54.260;20.822;2023-05-07T10:44:36;102187.09;;;26.82;22.06
52777;BME280;38656;54.260;20.822;2023-05-07T10:47:14;102179.41;;;27.00;21.80
52777;BME280;38656;54.260;20.822;2023-05-07T10:54:41;102182.69;;;26.96;22.67
52777;BME280;38656;54.260;20.822;2023-05-07T10:59:56;102184.91;;;27.65;20.94
52777;BME280;38656;54.260;20.822;2023-05-07T11:02:23;102186.84;;;27.13;22.33
52777;BME280;38656;54.260;20.822;2023-05-07T11:07:56;102178.97;;;26.67;21.71
52777;BME280;38656;54.260;20.822;2023-05-07T11:10:23;102187.25;;;27.47;22.39
52777;BME280;38656;54.260;20.822;2023-05-07T11:12:49;102174.25;;;27.06;21.34
52777;BME280;38656;54.260;20.822;2023-05-07T11:15:37;102182.31;;;26.84;21.90
52777;BME280;38656;54.260;20.822;2023-05-07T11:18:04;102194.50;;;25.36;22.54
52777;BME280;38656;54.260;20.822;2023-05-07T11:20:50;102193.78;;;25.88;22.10
52777;BME280;38656;54.260;20.822;2023-05-07T11:28:38;102179.38;;;26.11;23.07
52777;BME280;38656;54.260;20.822;2023-05-07T11:31:04;102183.56;;;26.13;22.79
52777;BME280;38656;54.260;20.822;2023-05-07T11:33:31;102190.34;;;26.62;22.57
52777;BME280;38656;54.260;20.822;2023-05-07T11:35:59;102192.03;;;26.63;21.47
52777;BME280;38656;54.260;20.822;2023-05-07T11:38:25;102181.56;;;26.90;21.76
52777;BME280;38656;54.260;20.822;2023-05-07T11:40:58;102193.72;;;26.64;21.79
52777;BME280;38656;54.260;20.822;2023-05-07T11:43:27;102191.88;;;25.11;23.41
52777;BME280;38656;54.260;20.822;2023-05-07T11:45:53;102195.34;;;25.83;23.09
52777;BME280;38656;54.260;20.822;2023-05-07T11:48:21;102183.41;;;27.05;20.78
52777;BME280;38656;54.260;20.822;2023-05-07T11:50:52;102194.09;;;26.91;20.26
52777;BME280;38656;54.260;20.822;2023-05-07T11:53:19;102188.50;;;25.72;23.34
52777;BME280;38656;54.260;20.822;2023-05-07T11:55:46;102183.91;;;26.63;22.65
52777;BME280;38656;54.260;20.822;2023-05-07T11:58:18;102189.22;;;26.42;22.93
52777;BME280;38656;54.260;20.822;2023-05-07T12:00:53;102194.44;;;26.28;22.29
52777;BME280;38656;54.260;20.822;2023-05-07T12:03:20;102198.19;;;26.27;22.81
52777;BME280;38656;54.260;20.822;2023-05-07T12:05:47;102193.72;;;26.64;22.31
52777;BME280;38656;54.260;20.822;2023-05-07T12:08:18;102190.56;;;26.76;20.42
52777;BME280;38656;54.260;20.822;2023-05-07T12:10:45;102197.75;;;25.77;20.78
52777;BME280;38656;54.260;20.822;2023-05-07T12:13:20;102189.75;;;26.22;22.42
52777;BME280;38656;54.260;20.822;2023-05-07T12:15:54;102188.03;;;27.41;21.91
52777;BME280;38656;54.260;20.822;2023-05-07T12:18:21;102189.38;;;27.15;21.41
52777;BME280;38656;54.260;20.822;2023-05-07T12:20:48;102180.75;;;28.48;21.36
52777;BME280;38656;54.260;20.822;2023-05-07T12:23:24;102185.72;;;27.23;22.07
52777;BME280;38656;54.260;20.822;2023-05-07T12:25:51;102193.88;;;26.48;21.53
52777;BME280;38656;54.260;20.822;2023-05-07T12:28:18;102187.94;;;26.38;21.83
52777;BME280;38656;54.260;20.822;2023-05-07T12:30:47;102173.16;;;27.58;20.84
52777;BME280;38656;54.260;20.822;2023-05-07T12:33:17;102187.47;;;27.95;20.63
52777;BME280;38656;54.260;20.822;2023-05-07T12:35:44;102186.25;;;26.37;23.25
52777;BME280;38656;54.260;20.822;2023-05-07T12:38:12;102185.16;;;27.12;21.56
52777;BME280;38656;54.260;20.822;2023-05-07T12:40:49;102186.53;;;25.66;22.01
52777;BME280;38656;54.260;20.822;2023-05-07T12:43:28;102179.41;;;25.10;23.09
52777;BME280;38656;54.260;20.822;2023-05-07T12:45:57;102177.78;;;25.55;22.82
52777;BME280;38656;54.260;20.822;2023-05-07T12:48:24;102178.53;;;25.49;22.90
52777;BME280;38656;54.260;20.822;2023-05-07T12:50:57;102177.09;;;26.38;21.98
52777;BME280;38656;54.260;20.822;2023-05-07T12:53:25;102168.25;;;26.06;23.24
52777;BME280;38656;54.260;20.822;2023-05-07T12:55:54;102177.47;;;26.35;21.86
52777;BME280;38656;54.260;20.822;2023-05-07T12:58:27;102166.44;;;27.54;21.34
52777;BME280;38656;54.260;20.822;2023-05-07T13:00:55;102172.72;;;27.18;22.24
52777;BME280;38656;54.260;20.822;2023-05-07T13:03:27;102175.91;;;25.01;23.32